Time;durP1;ratioP1;P1;durP2;ratioP2;P2;SDS_P1;SDS_P2;PMS_P1;PMS_P2;Temp;Humidity;BMP_temperature;BMP_pressure;BME280_temperature;BME280_humidity;BME280_pressure;Samples;Min_cycle;Max_cycle;Signal;HPM_P1;HPM_P2
2024/04/08 00:01:34;;;;;;;8.90;4.40;;;14.10;1.00;;;;;;5097304;28;20467;-61
2024/04/08 00:04:01;;;;;;;6.03;4.60;;;14.10;1.00;;;;;;5097360;28;20770;-61
2024/04/08 00:06:29;;;;;;;7.60;4.33;;;14.00;1.00;;;;;;5097437;28;20878;-61
2024/04/08 00:08:56;;;;;;;7.23;4.53;;;13.90;1.00;;;;;;5097798;28;20456;-61
2024/04/08 00:11:24;;;;;;;10.67;4.43;;;13.90;1.00;;;;;;5096566;28;20456;-62
2024/04/08 00:13:54;;;;;;;12.30;5.13;;;14.00;1.00;;;;;;5097547;28;20885;-63
2024/04/08 00:16:20;;;;;;;10.90;5.37;;;13.90;1.00;;;;;;5097368;28;20753;-62
2024/04/08 00:18:47;;;;;;;8.83;4.50;;;13.90;1.00;;;;;;5097774;28;20464;-62
2024/04/08 00:21:14;;;;;;;7.83;4.90;;;13.90;1.00;;;;;;5097593;28;20550;-63
2024/04/08 00:23:42;;;;;;;8.73;4.73;;;13.90;1.00;;;;;;5097216;28;20484;-63
2024/04/08 00:26:09;;;;;;;10.00;5.60;;;13.80;1.00;;;;;;5097425;28;20881;-62
2024/04/08 00:28:38;;;;;;;7.03;4.90;;;13.80;1.00;;;;;;5096774;28;20484;-63
2024/04/08 00:31:05;;;;;;;7.43;4.90;;;13.80;1.00;;;;;;5097514;28;20927;-63
2024/04/08 00:33:34;;;;;;;12.87;5.50;;;13.80;1.00;;;;;;5097253;28;20460;-63
2024/04/08 00:36:01;;;;;;;8.73;5.00;;;13.80;1.00;;;;;;5100517;28;20456;-63
2024/04/08 00:38:28;;;;;;;12.83;5.03;;;13.80;42.20;;;;;;5101356;28;20456;-63
2024/04/08 00:40:54;;;;;;;10.80;5.73;;;13.80;1.00;;;;;;5101217;28;20555;-63
2024/04/08 00:43:22;;;;;;;9.10;4.70;;;13.70;1.00;;;;;;5101029;28;20491;-63
2024/04/08 00:45:50;;;;;;;7.00;4.27;;;13.70;1.00;;;;;;5100651;28;20459;-63
2024/04/08 00:48:18;;;;;;;6.10;4.30;;;13.60;5.20;;;;;;5101051;28;20467;-63
2024/04/08 00:50:49;;;;;;;6.60;5.57;;;13.50;24.80;;;;;;5101142;28;20463;-63
2024/04/08 00:53:17;;;;;;;8.23;5.47;;;13.40;1.00;;;;;;5100174;28;20461;-62
2024/04/08 00:55:46;;;;;;;9.90;6.27;;;13.40;67.80;;;;;;5100261;28;20463;-62
2024/04/08 00:58:15;;;;;;;8.00;5.23;;;13.30;99.90;;;;;;5100791;28;20455;-62
2024/04/08 01:00:41;;;;;;;7.53;5.40;;;13.20;99.90;;;;;;5100523;28;20521;-62
2024/04/08 01:03:10;;;;;;;8.43;5.47;;;13.20;99.90;;;;;;5100732;28;20480;-62
2024/04/08 01:05:37;;;;;;;7.93;5.33;;;13.20;99.90;;;;;;5100554;28;20765;-62
2024/04/08 01:08:05;;;;;;;12.03;5.50;;;13.20;99.90;;;;;;5100558;28;20466;-62
2024/04/08 01:10:32;;;;;;;13.40;7.03;;;13.30;99.90;;;;;;5100418;28;20529;-62
2024/04/08 01:12:59;;;;;;;9.30;6.40;;;13.10;99.90;;;;;;5100346;28;20935;-62
2024/04/08 01:15:26;;;;;;;12.67;6.50;;;13.10;99.90;;;;;;5099808;28;20492;-62
2024/04/08 01:17:56;;;;;;;7.00;5.63;;;13.10;1.00;;;;;;5100260;28;20938;-62
2024/04/08 01:20:23;;;;;;;7.40;5.93;;;13.20;1.00;;;;;;5100465;28;20448;-62
2024/04/08 01:22:55;;;;;;;9.20;6.23;;;13.10;99.90;;;;;;5100121;28;20462;-63
2024/04/08 01:25:23;;;;;;;6.63;5.90;;;13.10;99.90;;;;;;5100207;28;20908;-62
2024/04/08 01:27:50;;;;;;;13.03;6.90;;;13.00;38.40;;;;;;5099891;28;20476;-63
2024/04/08 01:30:21;;;;;;;7.37;5.50;;;13.00;1.00;;;;;;5100241;28;20462;-63
2024/04/08 01:32:49;;;;;;;6.97;6.27;;;12.90;99.90;;;;;;5100333;28;20456;-64
2024/04/08 01:35:15;;;;;;;7.67;5.67;;;12.90;99.90;;;;;;5099392;28;20460;-64
2024/04/08 01:37:42;;;;;;;8.33;6.80;;;12.90;99.90;;;;;;5099944;28;20943;-64
2024/04/08 01:40:09;;;;;;;11.33;6.50;;;13.00;99.90;;;;;;5099847;28;20514;-64
2024/04/08 01:42:38;;;;;;;8.93;7.03;;;13.10;99.90;;;;;;5100004;28;20456;-64
2024/04/08 01:45:05;;;;;;;8.30;7.50;;;13.10;99.90;;;;;;5099290;28;20582;-65
2024/04/08 01:47:32;;;;;;;9.60;8.47;;;13.10;99.90;;;;;;5098458;28;20458;-65
2024/04/08 01:49:59;;;;;;;12.33;8.90;;;13.20;99.90;;;;;;5099635;28;20491;-65
2024/04/08 01:52:26;;;;;;;10.63;8.37;;;13.10;99.90;;;;;;5099929;28;20482;-64
2024/04/08 01:54:52;;;;;;;11.40;9.10;;;13.10;99.90;;;;;;5099559;28;20775;-64
2024/04/08 01:57:20;;;;;;;11.80;8.77;;;13.20;99.90;;;;;;5099197;28;20461;-64
2024/04/08 01:59:48;;;;;;;11.40;8.40;;;13.20;1.00;;;;;;5099555;28;20886;-65
2024/04/08 02:02:15;;;;;;;10.50;7.87;;;13.20;99.90;;;;;;5099550;28;20554;-66
2024/04/08 02:04:41;;;;;;;9.50;8.00;;;13.20;99.90;;;;;;5100397;28;20583;-66
2024/04/08 02:07:09;;;;;;;12.47;7.50;;;13.10;99.90;;;;;;5101465;28;20795;-65
2024/04/08 02:09:35;;;;;;;9.40;8.40;;;13.10;99.90;;;;;;5099936;28;20464;-66
2024/04/08 02:12:02;;;;;;;9.43;7.60;;;13.10;99.90;;;;;;5100280;28;20467;-64
2024/04/08 02:14:29;;;;;;;11.87;7.57;;;13.10;99.90;;;;;;5099689;28;20452;-64
2024/04/08 02:16:58;;;;;;;11.43;6.80;;;13.00;99.90;;;;;;5099683;28;20815;-64
2024/04/08 02:19:24;;;;;;;7.77;5.80;;;13.00;99.90;;;;;;5098779;28;20460;-63
2024/04/08 02:21:52;;;;;;;14.83;6.67;;;13.00;99.90;;;;;;5099290;28;20487;-63
2024/04/08 02:24:18;;;;;;;10.70;6.50;;;12.90;99.90;;;;;;5098860;28;20579;-63
2024/04/08 02:26:45;;;;;;;13.70;7.30;;;12.90;99.90;;;;;;5098957;28;20491;-63
2024/04/08 02:29:12;;;;;;;9.93;6.97;;;12.90;99.90;;;;;;5099105;28;20510;-64
2024/04/08 02:31:39;;;;;;;8.53;5.40;;;12.90;99.90;;;;;;5098753;28;20456;-63
2024/04/08 02:34:08;;;;;;;8.33;6.27;;;12.90;1.00;;;;;;5098845;28;20524;-63
2024/04/08 02:36:35;;;;;;;8.87;6.53;;;12.80;1.00;;;;;;5099037;28;20913;-63
2024/04/08 02:39:02;;;;;;;11.67;6.60;;;12.80;73.60;;;;;;5098646;28;20547;-63
2024/04/08 02:41:30;;;;;;;10.90;7.50;;;12.80;99.90;;;;;;5098648;28;20509;-63
2024/04/08 02:43:56;;;;;;;11.13;7.23;;;12.80;99.90;;;;;;5098621;28;20546;-63
2024/04/08 02:46:23;;;;;;;8.53;7.00;;;12.90;99.90;;;;;;5098479;28;20460;-63
2024/04/08 02:48:50;;;;;;;9.70;7.47;;;12.90;99.90;;;;;;5098405;28;20456;-63
2024/04/08 02:51:19;;;;;;;8.80;7.33;;;12.90;99.90;;;;;;5097970;28;20464;-63
2024/04/08 02:53:46;;;;;;;10.33;8.03;;;12.90;99.90;;;;;;5098434;28;20456;-64
2024/04/08 02:56:13;;;;;;;11.83;9.40;;;12.90;99.90;;;;;;5098183;28;20456;-61
2024/04/08 02:58:39;;;;;;;12.67;11.20;;;12.90;99.90;;;;;;5097669;28;20962;-63
2024/04/08 03:01:09;;;;;;;12.63;10.90;;;12.80;99.90;;;;;;5098310;28;20757;-62
2024/04/08 03:03:35;;;;;;;13.73;12.43;;;12.80;99.90;;;;;;5097411;28;20491;-62
2024/04/08 03:06:08;;;;;;;12.87;11.57;;;12.70;99.90;;;;;;5097559;28;20456;-62
2024/04/08 03:08:36;;;;;;;13.23;11.83;;;12.70;1.00;;;;;;5097789;28;20460;-62
2024/04/08 03:11:03;;;;;;;12.27;11.07;;;12.70;99.90;;;;;;5097936;28;20814;-62
2024/04/08 03:13:30;;;;;;;18.63;13.27;;;12.60;99.90;;;;;;5095924;28;20491;-62
2024/04/08 03:15:58;;;;;;;16.90;12.43;;;12.60;99.90;;;;;;5096512;28;20937;-62
2024/04/08 03:18:24;;;;;;;14.03;12.30;;;12.60;99.90;;;;;;5096055;28;20580;-62
2024/04/08 03:20:55;;;;;;;17.27;12.90;;;12.60;99.90;;;;;;5096585;28;20890;-62
2024/04/08 03:23:22;;;;;;;15.07;12.50;;;12.50;99.90;;;;;;5095698;28;20464;-63
2024/04/08 03:25:57;;;;;;;15.27;11.60;;;12.50;99.90;;;;;;5096300;28;21039;-63
2024/04/08 03:28:24;;;;;;;13.50;9.70;;;12.40;1.00;;;;;;5097789;28;20484;-62
2024/04/08 03:30:51;;;;;;;12.60;9.80;;;12.40;99.90;;;;;;5098130;28;20456;-63
2024/04/08 03:33:20;;;;;;;14.83;9.03;;;12.30;99.90;;;;;;5097392;28;20456;-63
2024/04/08 03:35:48;;;;;;;9.30;8.30;;;12.30;99.90;;;;;;5097548;28;20732;-62
2024/04/08 03:38:16;;;;;;;11.77;9.03;;;12.30;99.90;;;;;;5097936;28;20461;-62
2024/04/08 03:40:43;;;;;;;13.80;8.63;;;12.30;99.90;;;;;;5097663;28;20476;-63
2024/04/08 03:43:12;;;;;;;10.20;8.27;;;12.30;1.00;;;;;;5097607;28;20555;-62
2024/04/08 03:45:39;;;;;;;10.07;8.70;;;12.20;1.00;;;;;;5097157;28;20554;-62
2024/04/08 03:48:08;;;;;;;15.13;8.87;;;12.20;1.00;;;;;;5097294;28;20577;-62
2024/04/08 03:50:34;;;;;;;10.90;7.43;;;12.20;1.00;;;;;;5097917;28;20480;-62
2024/04/08 03:53:02;;;;;;;11.60;7.53;;;12.10;1.00;;;;;;5097238;28;20513;-62
2024/04/08 03:55:29;;;;;;;7.63;6.00;;;12.10;1.00;;;;;;5097270;28;20817;-63
2024/04/08 03:57:57;;;;;;;10.17;7.37;;;12.10;99.90;;;;;;5097536;28;20869;-63
2024/04/08 04:00:25;;;;;;;8.63;6.87;;;12.10;99.90;;;;;;5097507;28;20556;-63
2024/04/08 04:02:52;;;;;;;7.30;6.23;;;12.10;99.90;;;;;;5097664;28;20461;-63
2024/04/08 04:05:19;;;;;;;9.50;6.37;;;12.00;1.00;;;;;;5096679;28;20499;-63
2024/04/08 04:07:46;;;;;;;8.27;5.87;;;12.00;1.00;;;;;;5097662;28;20489;-63
2024/04/08 04:10:12;;;;;;;9.37;5.97;;;12.00;99.90;;;;;;5099620;28;20953;-63
2024/04/08 04:12:41;;;;;;;10.63;6.13;;;11.90;99.90;;;;;;5101855;28;20462;-63
2024/04/08 04:15:11;;;;;;;9.60;6.53;;;11.90;99.90;;;;;;5101806;28;20456;-63
2024/04/08 04:17:39;;;;;;;10.00;6.87;;;11.80;99.90;;;;;;5101554;28;20782;-63
2024/04/08 04:20:09;;;;;;;8.90;6.67;;;11.70;99.90;;;;;;5101741;28;20462;-63
2024/04/08 04:22:37;;;;;;;7.97;6.60;;;11.60;99.90;;;;;;5101645;28;20464;-63
2024/04/08 04:25:03;;;;;;;9.17;7.00;;;11.60;79.70;;;;;;5101656;28;20488;-62
2024/04/08 04:27:30;;;;;;;7.90;6.50;;;11.60;47.00;;;;;;5100948;28;20484;-63
2024/04/08 04:29:57;;;;;;;10.33;6.43;;;11.60;1.00;;;;;;5101288;28;20539;-64
2024/04/08 04:32:24;;;;;;;16.37;13.37;;;11.70;1.00;;;;;;5101332;28;20513;-65
2024/04/08 04:34:53;;;;;;;24.50;17.70;;;11.70;6.30;;;;;;5101262;28;20458;-64
2024/04/08 04:37:21;;;;;;;51.03;33.37;;;11.70;26.80;;;;;;5100875;28;20456;-64
2024/04/08 04:39:48;;;;;;;56.43;31.90;;;11.80;99.90;;;;;;5100589;28;20461;-64
2024/04/08 04:42:15;;;;;;;61.47;34.30;;;11.80;99.90;;;;;;5101184;28;20514;-64
2024/04/08 04:44:42;;;;;;;94.47;47.90;;;11.80;99.90;;;;;;5100712;28;20545;-64
2024/04/08 04:47:10;;;;;;;151.47;67.53;;;11.90;99.90;;;;;;5100770;28;20908;-63
2024/04/08 04:49:36;;;;;;;50.73;26.63;;;11.90;99.90;;;;;;5100258;28;20452;-63
2024/04/08 04:52:05;;;;;;;66.50;31.10;;;11.90;99.90;;;;;;5100877;28;20460;-64
2024/04/08 04:54:31;;;;;;;94.47;44.90;;;12.00;99.90;;;;;;5100213;28;20459;-64
2024/04/08 04:56:59;;;;;;;145.90;77.40;;;12.00;99.90;;;;;;5100427;28;20456;-64
2024/04/08 04:59:25;;;;;;;113.10;69.00;;;12.00;99.90;;;;;;5100059;28;20896;-64
2024/04/08 05:01:52;;;;;;;117.00;72.43;;;12.10;99.90;;;;;;5100255;28;20513;-64
2024/04/08 05:04:18;;;;;;;130.97;87.13;;;12.10;99.90;;;;;;5100225;28;20917;-64
2024/04/08 05:06:46;;;;;;;85.77;52.17;;;12.10;99.90;;;;;;5100454;28;20662;-64
2024/04/08 05:09:13;;;;;;;60.63;42.50;;;12.10;99.90;;;;;;5100448;28;20521;-64
2024/04/08 05:11:41;;;;;;;54.00;34.60;;;12.00;99.90;;;;;;5100305;28;20470;-63
2024/04/08 05:14:07;;;;;;;44.93;25.70;;;12.00;99.90;;;;;;5100073;28;20509;-64
2024/04/08 05:16:35;;;;;;;36.63;25.90;;;12.00;99.90;;;;;;5100513;28;20462;-63
2024/04/08 05:19:01;;;;;;;26.00;18.73;;;12.00;99.90;;;;;;5100529;28;20456;-64
2024/04/08 05:21:28;;;;;;;23.57;14.73;;;12.00;99.90;;;;;;5100174;28;20838;-64
2024/04/08 05:23:55;;;;;;;24.27;16.73;;;12.00;99.90;;;;;;5099395;28;20571;-64
2024/04/08 05:26:23;;;;;;;19.10;14.63;;;12.00;99.90;;;;;;5100101;28;20456;-63
2024/04/08 05:28:49;;;;;;;25.07;16.53;;;12.00;99.90;;;;;;5100064;28;20486;-63
2024/04/08 05:31:17;;;;;;;13.80;10.97;;;12.00;99.90;;;;;;5099701;28;20456;-63
2024/04/08 05:33:43;;;;;;;14.93;9.90;;;12.00;99.90;;;;;;5099738;28;20904;-63
2024/04/08 05:36:10;;;;;;;15.70;12.20;;;12.00;99.90;;;;;;5099821;28;20460;-63
2024/04/08 05:38:37;;;;;;;15.80;12.50;;;12.00;99.90;;;;;;5100166;28;20494;-64
2024/04/08 05:41:04;;;;;;;18.20;13.03;;;12.00;99.90;;;;;;5100257;28;20486;-63
2024/04/08 05:43:32;;;;;;;14.60;12.10;;;12.00;99.90;;;;;;5099291;28;20548;-63
2024/04/08 05:45:59;;;;;;;13.77;11.57;;;12.10;99.90;;;;;;5099853;28;20955;-64
2024/04/08 05:48:25;;;;;;;16.20;10.43;;;12.10;99.90;;;;;;5099729;28;20466;-63
2024/04/08 05:50:53;;;;;;;13.10;10.90;;;12.10;99.90;;;;;;5100041;28;20456;-64
2024/04/08 05:53:19;;;;;;;13.03;10.07;;;12.20;99.90;;;;;;5099307;28;20814;-64
2024/04/08 05:55:46;;;;;;;15.23;11.60;;;12.20;99.90;;;;;;5099347;28;20464;-63
2024/04/08 05:58:13;;;;;;;15.33;11.60;;;12.30;99.90;;;;;;5099401;28;20495;-63
2024/04/08 06:00:43;;;;;;;13.90;10.33;;;12.40;99.90;;;;;;5099857;28;20786;-63
2024/04/08 06:03:09;;;;;;;14.63;11.07;;;12.50;99.90;;;;;;5099756;28;20578;-63
2024/04/08 06:05:41;;;;;;;12.70;11.33;;;12.50;99.90;;;;;;5099137;28;20495;-63
2024/04/08 06:08:07;;;;;;;12.83;11.40;;;12.60;99.90;;;;;;5099263;28;20719;-63
2024/04/08 06:10:41;;;;;;;17.83;11.97;;;12.70;99.90;;;;;;5099279;28;20585;-63
2024/04/08 06:13:08;;;;;;;16.80;12.87;;;12.80;99.90;;;;;;5099422;28;20874;-63
2024/04/08 06:15:36;;;;;;;14.83;12.80;;;12.90;99.90;;;;;;5099472;28;20933;-63
2024/04/08 06:18:04;;;;;;;17.10;12.37;;;12.90;99.90;;;;;;5099375;28;20885;-62
2024/04/08 06:20:32;;;;;;;15.40;12.13;;;13.00;99.90;;;;;;5099135;28;20562;-62
2024/04/08 06:23:00;;;;;;;19.00;13.17;;;13.20;99.90;;;;;;5099296;28;20486;-62
2024/04/08 06:25:27;;;;;;;14.77;13.17;;;13.20;99.90;;;;;;5098689;28;20488;-62
2024/04/08 06:27:54;;;;;;;13.60;12.10;;;13.30;99.90;;;;;;5098413;28;20516;-63
2024/04/08 06:30:21;;;;;;;19.27;11.90;;;13.40;99.90;;;;;;5098636;28;20968;-63
2024/04/08 06:32:49;;;;;;;15.27;10.10;;;13.60;99.90;;;;;;5098285;28;20456;-63
2024/04/08 06:35:18;;;;;;;12.40;11.10;;;13.70;99.90;;;;;;5098463;28;20459;-62
2024/04/08 06:37:44;;;;;;;14.57;11.33;;;13.90;99.90;;;;;;5098414;28;20456;-62
2024/04/08 06:40:12;;;;;;;12.37;11.17;;;14.00;99.90;;;;;;5098877;28;20492;-61
2024/04/08 06:42:38;;;;;;;13.80;9.93;;;14.10;99.90;;;;;;5098670;28;20456;-62
2024/04/08 06:45:06;;;;;;;14.43;10.60;;;14.30;99.90;;;;;;5098799;28;20495;-61
2024/04/08 06:47:32;;;;;;;11.53;10.00;;;14.40;99.90;;;;;;5098507;28;20460;-62
2024/04/08 06:50:01;;;;;;;14.00;9.93;;;14.40;99.90;;;;;;5098329;28;20474;-62
2024/04/08 06:52:29;;;;;;;13.13;10.00;;;14.60;1.00;;;;;;5098618;28;20483;-61
2024/04/08 06:54:56;;;;;;;11.47;9.30;;;14.70;1.00;;;;;;5098628;28;20545;-62
2024/04/08 06:57:25;;;;;;;12.73;9.47;;;14.80;99.90;;;;;;5097868;28;20460;-61
2024/04/08 06:59:52;;;;;;;13.47;8.47;;;15.00;1.00;;;;;;5098422;28;20956;-61
2024/04/08 07:02:18;;;;;;;9.77;8.50;;;15.20;27.80;;;;;;5098433;28;20739;-61
2024/04/08 07:04:46;;;;;;;11.77;9.47;;;15.30;1.00;;;;;;5098323;28;20495;-60
2024/04/08 07:07:12;;;;;;;14.13;9.13;;;15.50;1.00;;;;;;5098594;28;20506;-59
2024/04/08 07:09:41;;;;;;;13.57;9.00;;;15.60;1.00;;;;;;5098327;28;21069;-60
2024/04/08 07:12:07;;;;;;;10.87;8.80;;;15.70;1.00;;;;;;5096148;28;20492;-60
2024/04/08 07:14:35;;;;;;;10.30;9.20;;;15.80;1.00;;;;;;5096981;28;20452;-59
2024/04/08 07:17:01;;;;;;;10.27;8.70;;;16.00;1.00;;;;;;5096136;28;20461;-59
2024/04/08 07:19:28;;;;;;;11.83;8.47;;;16.10;1.00;;;;;;5094492;28;20456;-59
2024/04/08 07:21:54;;;;;;;10.47;8.07;;;16.20;1.00;;;;;;5095102;28;20500;-60
2024/04/08 07:24:22;;;;;;;9.97;8.07;;;16.40;99.90;;;;;;5095720;28;20484;-60
2024/04/08 07:26:50;;;;;;;10.20;7.80;;;16.60;1.00;;;;;;5095526;28;20480;-60
2024/04/08 07:29:17;;;;;;;9.03;7.50;;;16.70;1.00;;;;;;5094697;28;20464;-60
2024/04/08 07:31:43;;;;;;;10.83;8.30;;;16.80;99.90;;;;;;5094526;28;20950;-61
2024/04/08 07:34:11;;;;;;;9.27;8.07;;;16.90;99.90;;;;;;5094698;28;20472;-60
2024/04/08 07:36:37;;;;;;;12.70;8.50;;;17.00;99.90;;;;;;5095890;28;20456;-61
2024/04/08 07:39:04;;;;;;;9.37;7.97;;;17.00;1.00;;;;;;5096125;28;20765;-61
2024/04/08 07:41:31;;;;;;;8.80;6.43;;;16.90;1.00;;;;;;5096088;28;20943;-61
2024/04/08 07:43:59;;;;;;;11.23;7.50;;;17.00;1.00;;;;;;5096408;28;20904;-61
2024/04/08 07:46:26;;;;;;;7.20;6.40;;;17.10;1.00;;;;;;5097503;28;20441;-60
2024/04/08 07:48:54;;;;;;;12.50;7.03;;;17.20;1.00;;;;;;5097855;28;20930;-60
2024/04/08 07:51:20;;;;;;;10.47;7.77;;;17.30;1.00;;;;;;5097318;28;20474;-60
2024/04/08 07:53:48;;;;;;;10.80;7.90;;;17.50;1.00;;;;;;5097595;28;20463;-60
2024/04/08 07:56:14;;;;;;;8.90;7.13;;;17.60;99.90;;;;;;5097710;28;20539;-59
2024/04/08 07:58:42;;;;;;;9.23;6.40;;;17.90;99.90;;;;;;5097725;28;20463;-60
2024/04/08 08:01:09;;;;;;;9.73;6.10;;;18.10;99.90;;;;;;5097743;28;20483;-60
2024/04/08 08:03:36;;;;;;;9.57;6.60;;;18.20;99.90;;;;;;5096416;28;20464;-60
2024/04/08 08:06:06;;;;;;;10.07;6.07;;;18.20;1.00;;;;;;5097016;28;20560;-60
2024/04/08 08:08:33;;;;;;;8.27;6.37;;;18.30;1.00;;;;;;5097038;28;20534;-60
2024/04/08 08:11:03;;;;;;;6.70;6.00;;;18.50;99.90;;;;;;5097797;28;20460;-59
2024/04/08 08:13:30;;;;;;;8.93;5.70;;;18.70;75.70;;;;;;5097392;28;20460;-59
2024/04/08 08:15:58;;;;;;;12.50;5.00;;;18.80;1.00;;;;;;5097437;28;20456;-59
2024/04/08 08:18:27;;;;;;;9.80;6.03;;;19.10;72.40;;;;;;5097214;28;20486;-58
2024/04/08 08:20:55;;;;;;;8.83;5.53;;;19.30;99.90;;;;;;5097514;28;20491;-59
2024/04/08 08:23:22;;;;;;;9.50;6.63;;;19.50;99.90;;;;;;5097298;28;20456;-58
2024/04/08 08:25:50;;;;;;;7.40;5.87;;;19.70;99.90;;;;;;5096887;28;20586;-58
2024/04/08 08:28:17;;;;;;;8.50;5.70;;;19.70;99.90;;;;;;5097080;28;20605;-58
2024/04/08 08:30:45;;;;;;;7.40;4.67;;;20.00;99.90;;;;;;5097048;28;20559;-58
2024/04/08 08:33:12;;;;;;;7.03;5.30;;;20.10;1.00;;;;;;5096650;28;20452;-58
2024/04/08 08:35:41;;;;;;;9.10;4.40;;;20.30;1.00;;;;;;5095351;28;20538;-58
2024/04/08 08:38:08;;;;;;;6.07;4.90;;;20.00;1.00;;;;;;5095626;28;20535;-58
2024/04/08 08:40:43;;;;;;;5.50;4.23;;;20.20;1.00;;;;;;5097032;28;20925;-58
2024/04/08 08:43:10;;;;;;;5.80;4.30;;;20.30;1.00;;;;;;5097576;28;20930;-58
2024/04/08 08:45:41;;;;;;;9.53;5.60;;;20.50;1.00;;;;;;5097381;28;20484;-58
2024/04/08 08:48:08;;;;;;;7.30;5.07;;;20.60;1.00;;;;;;5096628;28;20761;-58
2024/04/08 08:50:37;;;;;;;10.43;4.27;;;20.60;27.50;;;;;;5097152;28;20885;-58
2024/04/08 08:53:05;;;;;;;6.60;4.43;;;20.90;1.00;;;;;;5097123;28;20539;-58
2024/04/08 08:55:33;;;;;;;8.10;4.67;;;21.00;1.00;;;;;;5097964;28;20460;-58
2024/04/08 08:58:00;;;;;;;6.10;4.40;;;21.20;1.00;;;;;;5100445;28;20468;-59
2024/04/08 09:00:28;;;;;;;6.83;4.37;;;21.50;1.00;;;;;;5101039;28;20908;-59
2024/04/08 09:02:56;;;;;;;10.07;4.80;;;21.80;1.00;;;;;;5100963;28;20944;-58
2024/04/08 09:05:23;;;;;;;6.60;5.13;;;21.80;99.90;;;;;;5100654;28;20487;-57
2024/04/08 09:07:49;;;;;;;8.10;5.60;;;21.90;99.90;;;;;;5100565;28;20463;-58
2024/04/08 09:10:20;;;;;;;6.20;5.60;;;21.90;1.00;;;;;;5100596;28;20483;-59
2024/04/08 09:12:46;;;;;;;9.03;5.53;;;21.90;1.00;;;;;;5100700;28;20754;-58
2024/04/08 09:15:14;;;;;;;7.47;5.50;;;22.00;1.00;;;;;;5100801;28;20900;-58
2024/04/08 09:17:41;;;;;;;7.13;4.87;;;21.90;1.00;;;;;;5100706;28;20460;-58
2024/04/08 09:20:11;;;;;;;12.50;5.67;;;22.00;42.10;;;;;;5099475;28;20509;-58
2024/04/08 09:22:37;;;;;;;8.73;4.90;;;22.30;99.90;;;;;;5098531;28;20817;-57
2024/04/08 09:25:12;;;;;;;9.47;5.37;;;22.40;99.90;;;;;;5099979;28;20766;-58
2024/04/08 09:27:40;;;;;;;7.70;5.10;;;22.30;99.90;;;;;;5099221;28;20487;-58
2024/04/08 09:30:08;;;;;;;11.43;5.70;;;22.50;99.90;;;;;;5100380;28;20460;-58
2024/04/08 09:32:36;;;;;;;7.07;5.50;;;22.70;1.80;;;;;;5100236;28;20796;-58
2024/04/08 09:35:03;;;;;;;9.77;5.70;;;22.90;1.00;;;;;;5098744;28;20547;-59
2024/04/08 09:37:32;;;;;;;8.90;4.70;;;23.10;99.90;;;;;;5098143;28;20460;-58
2024/04/08 09:40:00;;;;;;;6.40;5.07;;;23.30;99.90;;;;;;5098227;28;20512;-58
2024/04/08 09:42:32;;;;;;;6.90;5.20;;;23.30;1.00;;;;;;5098265;28;20464;-58
2024/04/08 09:45:00;;;;;;;5.23;4.30;;;23.30;1.00;;;;;;5098796;28;20492;-58
2024/04/08 09:47:28;;;;;;;5.70;4.20;;;23.30;99.90;;;;;;5098102;28;20461;-59
2024/04/08 09:49:57;;;;;;;7.07;4.20;;;23.30;1.00;;;;;;5098436;28;20496;-59
2024/04/08 09:52:25;;;;;;;10.37;4.60;;;23.40;99.90;;;;;;5099828;28;20886;-59
2024/04/08 09:54:54;;;;;;;8.70;4.20;;;23.20;99.90;;;;;;5100047;28;20912;-59
2024/04/08 09:57:26;;;;;;;6.07;3.93;;;23.20;99.90;;;;;;5099527;28;20464;-58
2024/04/08 09:59:56;;;;;;;9.57;4.17;;;23.20;99.90;;;;;;5099590;28;20509;-58
2024/04/08 10:02:32;;;;;;;5.73;4.40;;;23.60;2.00;;;;;;5099600;28;20468;-58
2024/04/08 10:05:03;;;;;;;5.50;4.27;;;23.60;1.00;;;;;;5099830;28;20510;-58
2024/04/08 10:07:31;;;;;;;8.97;4.60;;;23.60;1.00;;;;;;5098279;28;20456;-59
2024/04/08 10:10:01;;;;;;;7.80;4.77;;;23.50;1.00;;;;;;5099461;28;20460;-59
2024/04/08 10:12:32;;;;;;;6.40;3.87;;;23.60;1.00;;;;;;5099790;28;20766;-59
2024/04/08 10:15:08;;;;;;;8.10;4.10;;;23.90;99.90;;;;;;5098118;28;20897;-59
2024/04/08 10:17:37;;;;;;;5.50;3.57;;;23.90;1.00;;;;;;5099319;28;20889;-59
2024/04/08 10:20:06;;;;;;;6.70;3.90;;;23.60;1.00;;;;;;5099526;28;20488;-59
2024/04/08 10:22:35;;;;;;;7.70;4.00;;;23.90;1.00;;;;;;5099492;28;20459;-59
2024/04/08 10:25:01;;;;;;;6.40;4.10;;;23.60;99.90;;;;;;5099376;28;20484;-58
2024/04/08 10:27:30;;;;;;;10.40;4.50;;;23.70;99.90;;;;;;5098657;28;20554;-59
2024/04/08 10:29:57;;;;;;;8.47;4.53;;;23.90;70.20;;;;;;5098891;28;20522;-59
2024/04/08 10:32:24;;;;;;;7.50;4.53;;;24.40;99.90;;;;;;5099118;28;20467;-59
2024/04/08 10:34:54;;;;;;;5.60;4.23;;;24.60;1.00;;;;;;5098773;28;20467;-59
2024/04/08 10:37:22;;;;;;;6.60;4.10;;;24.60;1.00;;;;;;5098907;28;20464;-59
2024/04/08 10:39:57;;;;;;;8.63;5.27;;;24.40;99.90;;;;;;5098529;28;20456;-59
2024/04/08 10:42:27;;;;;;;5.93;4.00;;;24.80;99.90;;;;;;5098722;28;20486;-58
2024/04/08 10:44:55;;;;;;;4.90;3.93;;;24.90;1.00;;;;;;5098613;28;20901;-58
2024/04/08 10:47:22;;;;;;;8.80;4.37;;;24.70;99.90;;;;;;5098627;28;20467;-58
2024/04/08 10:49:49;;;;;;;7.80;4.57;;;24.90;1.00;;;;;;5098492;28;20458;-57
2024/04/08 10:52:18;;;;;;;6.60;3.83;;;24.90;1.00;;;;;;5098773;28;20456;-58
2024/04/08 10:54:45;;;;;;;7.40;4.03;;;25.10;1.00;;;;;;5098870;28;20460;-59
2024/04/08 10:57:12;;;;;;;7.93;4.13;;;25.30;99.90;;;;;;5098792;28;20748;-57
2024/04/08 10:59:38;;;;;;;8.03;4.17;;;25.50;1.00;;;;;;5098383;28;20558;-58
2024/04/08 11:02:14;;;;;;;9.70;3.90;;;25.60;92.80;;;;;;5098165;28;20457;-58
2024/04/08 11:04:40;;;;;;;7.07;4.60;;;25.60;1.00;;;;;;5098566;28;20492;-56
2024/04/08 11:07:08;;;;;;;7.17;4.10;;;25.50;99.90;;;;;;5098142;28;21043;-56
2024/04/08 11:09:36;;;;;;;8.63;4.00;;;25.50;1.00;;;;;;5097810;28;20466;-56
2024/04/08 11:12:05;;;;;;;9.10;3.87;;;25.60;1.00;;;;;;5098104;28;20467;-56
2024/04/08 11:14:32;;;;;;;8.30;4.50;;;25.70;1.00;;;;;;5098297;28;20801;-57
2024/04/08 11:17:08;;;;;;;5.70;3.83;;;25.80;1.00;;;;;;5098196;28;20462;-57
2024/04/08 11:19:37;;;;;;;5.53;4.20;;;25.60;1.00;;;;;;5097854;28;20460;-57
2024/04/08 11:22:08;;;;;;;7.80;4.40;;;25.70;5.40;;;;;;5098154;28;20555;-56
2024/04/08 11:24:40;;;;;;;11.10;3.63;;;25.20;1.00;;;;;;5098368;28;20451;-55
2024/04/08 11:27:09;;;;;;;6.43;4.17;;;24.50;1.00;;;;;;5097681;28;20492;-56
2024/04/08 11:29:35;;;;;;;8.07;4.17;;;23.90;1.00;;;;;;5096375;28;20491;-57
2024/04/08 11:32:04;;;;;;;8.27;4.10;;;23.20;99.90;;;;;;5097144;28;20517;-57
2024/04/08 11:34:30;;;;;;;6.87;3.80;;;23.20;1.00;;;;;;5097496;28;20466;-56
2024/04/08 11:36:58;;;;;;;8.13;4.60;;;23.30;99.90;;;;;;5097268;28;20499;-57
2024/04/08 11:39:24;;;;;;;6.60;3.97;;;23.30;44.50;;;;;;5096791;28;20732;-56
2024/04/08 11:41:53;;;;;;;7.23;3.60;;;23.30;1.00;;;;;;5097148;28;20468;-57
2024/04/08 11:44:30;;;;;;;8.13;3.83;;;23.30;94.40;;;;;;5096888;28;20555;-57
2024/04/08 11:46:57;;;;;;;7.37;3.70;;;23.40;99.90;;;;;;5097960;28;20488;-57
2024/04/08 11:49:24;;;;;;;6.77;4.50;;;23.40;99.90;;;;;;5097515;28;20957;-57
2024/04/08 11:51:51;;;;;;;8.30;4.70;;;23.80;99.90;;;;;;5097325;28;20479;-57
2024/04/08 11:54:18;;;;;;;10.97;4.93;;;24.40;38.70;;;;;;5097221;28;20427;-57
2024/04/08 11:56:47;;;;;;;8.67;4.93;;;24.50;99.90;;;;;;5097921;28;20513;-56
2024/04/08 11:59:16;;;;;;;8.37;4.60;;;24.50;99.90;;;;;;5097406;28;20954;-57
2024/04/08 12:01:43;;;;;;;7.97;4.63;;;24.60;99.90;;;;;;5097783;28;20530;-57
2024/04/08 12:04:11;;;;;;;6.30;3.50;;;24.90;1.00;;;;;;5097818;28;20463;-57
2024/04/08 12:06:39;;;;;;;4.50;3.47;;;24.80;1.00;;;;;;5097465;28;20542;-56
2024/04/08 12:09:05;;;;;;;5.57;3.80;;;25.00;99.90;;;;;;5097602;28;20491;-57
2024/04/08 12:11:33;;;;;;;4.60;3.93;;;25.10;99.90;;;;;;5096258;28;20761;-57
2024/04/08 12:14:00;;;;;;;6.57;4.30;;;24.90;1.00;;;;;;5096044;28;20820;-57
2024/04/08 12:16:29;;;;;;;8.60;3.83;;;24.80;1.00;;;;;;5078275;28;20453;-57
2024/04/08 12:18:55;;;;;;;7.80;4.17;;;24.90;1.00;;;;;;5075707;28;20435;-57
2024/04/08 12:21:22;;;;;;;8.47;4.37;;;25.10;90.70;;;;;;5075703;28;20808;-57
2024/04/08 12:23:53;;;;;;;5.93;4.10;;;25.50;1.00;;;;;;5076098;28;20472;-57
2024/04/08 12:26:21;;;;;;;5.40;4.23;;;25.60;99.90;;;;;;5076177;28;20538;-57
2024/04/08 12:28:47;;;;;;;7.90;4.40;;;25.70;99.90;;;;;;5073994;28;20477;-57
2024/04/08 12:31:15;;;;;;;7.90;4.27;;;26.10;85.60;;;;;;5075766;28;20827;-57
2024/04/08 12:33:43;;;;;;;7.43;3.63;;;25.80;99.90;;;;;;5077245;28;20564;-56
2024/04/08 12:36:11;;;;;;;6.73;4.03;;;25.90;17.00;;;;;;5077010;28;20522;-58
2024/04/08 12:38:38;;;;;;;5.97;3.87;;;26.00;99.90;;;;;;5077057;28;20457;-57
2024/04/08 12:41:05;;;;;;;6.60;4.10;;;26.00;99.90;;;;;;5077108;28;20453;-58
2024/04/08 12:43:34;;;;;;;5.60;4.67;;;25.60;1.00;;;;;;5095277;28;20849;-57
2024/04/08 12:46:02;;;;;;;9.53;5.60;;;25.00;1.00;;;;;;5096705;28;20780;-57